Time;durP1;ratioP1;P1;durP2;ratioP2;P2;SDS_P1;SDS_P2;PMS_P1;PMS_P2;Temp;Humidity;BMP_temperature;BMP_pressure;BME280_temperature;BME280_humidity;BME280_pressure;Samples;Min_cycle;Max_cycle;Signal;HPM_P1;HPM_P2
2022/06/05 00:00:13;;;;;;;;;;;;;;;18.70;75.28;96498.19;5093803;28;19952;-73
2022/06/05 00:02:47;;;;;;;;;;;;;;;18.67;75.34;96493.44;5093842;28;19956;-75
2022/06/05 00:05:26;;;;;;;;;;;;;;;18.64;75.88;96494.75;5093741;28;19952;-73
2022/06/05 00:08:01;;;;;;;;;;;;;;;18.61;75.79;96481.22;5093929;28;19958;-74
2022/06/05 00:10:31;;;;;;;;;;;;;;;18.58;75.80;96477.25;5093641;28;19960;-73
2022/06/05 00:13:00;;;;;;;;;;;;;;;18.55;76.02;96476.97;5093892;28;19959;-73
2022/06/05 00:15:27;;;;;;;;;;;;;;;18.52;75.96;96473.00;5093575;28;19951;-73
2022/06/05 00:17:59;;;;;;;;;;;;;;;18.50;76.09;96469.81;5094011;28;20044;-73
2022/06/05 00:20:25;;;;;;;;;;;;;;;18.48;76.21;96457.84;5093481;28;19970;-73
2022/06/05 00:22:51;;;;;;;;;;;;;;;18.45;76.45;96448.56;5093908;28;19959;-73
2022/06/05 00:25:17;;;;;;;;;;;;;;;18.40;77.14;96446.72;5093803;28;19956;-73
2022/06/05 00:27:55;;;;;;;;;;;;;;;18.35;77.04;96440.63;5093466;28;19962;-73
2022/06/05 00:30:41;;;;;;;;;;;;;;;18.28;77.14;96442.75;5091791;28;19983;-73
2022/06/05 00:33:15;;;;;;;;;;;;;;;18.21;77.87;96446.47;5093657;28;19963;-73
2022/06/05 00:35:46;;;;;;;;;;;;;;;18.17;78.10;96453.38;5093682;28;20297;-73
2022/06/05 00:38:19;;;;;;;;;;;;;;;18.16;78.29;96446.47;5093295;28;19967;-74
2022/06/05 00:41:00;;;;;;;;;;;;;;;18.16;78.37;96443.03;5093424;28;19952;-73
2022/06/05 00:43:26;;;;;;;;;;;;;;;18.14;79.86;96445.97;5093471;28;19961;-74
2022/06/05 00:45:53;;;;;;;;;;;;;;;18.12;78.64;96447.25;5093392;28;19952;-73
2022/06/05 00:48:19;;;;;;;;;;;;;;;18.11;78.68;96448.34;5094982;28;19960;-73
2022/06/05 00:50:45;;;;;;;;;;;;;;;18.11;79.05;96451.00;5097110;28;20290;-74
2022/06/05 00:53:11;;;;;;;;;;;;;;;18.12;78.60;96456.03;5097360;28;19970;-73
2022/06/05 00:55:39;;;;;;;;;;;;;;;18.11;78.77;96453.66;5097535;28;19957;-75
2022/06/05 00:58:05;;;;;;;;;;;;;;;18.10;79.08;96458.16;5097181;28;19972;-73
2022/06/05 01:00:40;;;;;;;;;;;;;;;18.12;78.88;96449.91;5079327;28;20310;-74
2022/06/05 01:03:09;;;;;;;;;;;;;;;18.11;79.21;96456.31;5097130;28;19965;-74
2022/06/05 01:05:35;;;;;;;;;;;;;;;18.10;78.85;96455.50;5097074;28;19960;-74
2022/06/05 01:08:01;;;;;;;;;;;;;;;18.08;78.83;96457.63;5097468;28;19967;-73
2022/06/05 01:10:43;;;;;;;;;;;;;;;18.07;79.36;96458.69;5096807;28;19960;-74
2022/06/05 01:13:27;;;;;;;;;;;;;;;18.04;79.68;96446.75;5096878;28;19961;-73
2022/06/05 01:16:12;;;;;;;;;;;;;;;18.03;79.18;96450.44;5096763;28;20327;-74
2022/06/05 01:19:01;;;;;;;;;;;;;;;18.02;79.19;96451.53;5096733;28;20336;-73
2022/06/05 01:21:36;;;;;;;;;;;;;;;18.04;79.73;96449.41;5077017;28;19956;-73
2022/06/05 01:24:11;;;;;;;;;;;;;;;18.04;79.31;96462.66;5096725;28;20060;-74
2022/06/05 01:26:46;;;;;;;;;;;;;;;18.07;79.24;96466.66;5096810;28;19977;-73
2022/06/05 01:29:18;;;;;;;;;;;;;;;18.07;79.49;96469.31;5096793;28;19964;-73
2022/06/05 01:32:06;;;;;;;;;;;;;;;18.07;78.49;96453.38;5096336;28;19975;-73
2022/06/05 01:34:44;;;;;;;;;;;;;;;18.02;79.19;96443.56;5096530;28;19967;-74
2022/06/05 01:37:13;;;;;;;;;;;;;;;17.95;78.61;96431.63;5096199;28;19973;-73
2022/06/05 01:39:46;;;;;;;;;;;;;;;17.87;78.33;96421.53;5096685;28;19954;-73
2022/06/05 01:42:15;;;;;;;;;;;;;;;17.78;79.38;96423.88;5096260;28;19959;-74
2022/06/05 01:44:43;;;;;;;;;;;;;;;17.72;80.52;96425.72;5096443;28;19961;-74
2022/06/05 01:47:24;;;;;;;;;;;;;;;17.65;79.67;96427.84;5095371;28;19951;-73
2022/06/05 01:49:59;;;;;;;;;;;;;;;17.59;80.06;96432.34;5096042;28;19956;-74
2022/06/05 01:52:32;;;;;;;;;;;;;;;17.55;80.26;96419.88;5096240;28;19948;-74
2022/06/05 01:55:15;;;;;;;;;;;;;;;17.49;81.08;96413.78;5096341;28;19964;-74
2022/06/05 01:57:41;;;;;;;;;;;;;;;17.41;77.95;96407.13;5087445;28;19976;-73
2022/06/05 02:00:10;;;;;;;;;;;;;;;17.34;80.85;96414.53;5095250;28;19997;-73
2022/06/05 02:02:44;;;;;;;;;;;;;;;17.27;82.31;96406.03;5095915;28;20401;-73
2022/06/05 02:05:13;;;;;;;;;;;;;;;17.18;82.54;96397.81;5077662;28;19954;-73
2022/06/05 02:07:41;;;;;;;;;;;;;;;17.13;81.80;96378.44;5095257;28;19959;-73
2022/06/05 02:10:09;;;;;;;;;;;;;;;17.04;81.54;96346.34;5096076;28;20416;-74
2022/06/05 02:12:36;;;;;;;;;;;;;;;16.96;81.73;96325.66;5095832;28;19953;-73
2022/06/05 02:15:02;;;;;;;;;;;;;;;16.92;82.83;96316.66;5095721;28;19958;-73
2022/06/05 02:17:30;;;;;;;;;;;;;;;16.86;83.34;96312.41;5095646;28;19968;-73
2022/06/05 02:19:57;;;;;;;;;;;;;;;16.81;82.96;96302.59;5095665;28;19946;-73
2022/06/05 02:22:28;;;;;;;;;;;;;;;16.78;83.18;96288.00;5095242;28;19981;-73
2022/06/05 02:24:54;;;;;;;;;;;;;;;16.75;84.67;96264.66;5095006;28;19961;-73
2022/06/05 02:27:21;;;;;;;;;;;;;;;16.71;84.43;96260.16;5095893;28;19959;-74
2022/06/05 02:29:47;;;;;;;;;;;;;;;16.69;82.92;96262.28;5094856;28;20456;-74
2022/06/05 02:32:22;;;;;;;;;;;;;;;16.68;87.75;96260.69;5095268;28;19968;-73
2022/06/05 02:35:00;;;;;;;;;;;;;;;16.66;84.18;96265.44;5094906;28;19954;-74
2022/06/05 02:37:36;;;;;;;;;;;;;;;16.66;85.58;96299.88;5079162;28;20030;-73
2022/06/05 02:40:08;;;;;;;;;;;;;;;16.67;86.10;96326.06;5095148;28;19952;-73
2022/06/05 02:43:13;;;;;;;;;;;;;;;16.68;84.36;96308.34;5082971;28;19961;-74
2022/06/05 02:45:39;;;;;;;;;;;;;;;16.68;87.49;96284.53;5095006;28;19947;-73
2022/06/05 02:48:10;;;;;;;;;;;;;;;16.68;85.47;96272.06;5095106;28;20429;-73
2022/06/05 02:50:48;;;;;;;;;;;;;;;16.72;86.92;96270.50;5076907;28;19953;-74
2022/06/05 02:53:15;;;;;;;;;;;;;;;16.76;88.69;96278.72;5094963;28;19958;-73
2022/06/05 02:55:41;;;;;;;;;;;;;;;16.82;88.20;96286.44;5094732;28;19964;-74
2022/06/05 02:58:07;;;;;;;;;;;;;;;16.88;87.16;96278.50;5094823;28;19974;-74
2022/06/05 03:00:34;;;;;;;;;;;;;;;16.91;85.77;96270.03;5094857;28;20428;-75
2022/06/05 03:05:45;;;;;;;;;;;;;;;16.94;86.85;96262.34;5094812;28;19959;-73
2022/06/05 03:08:13;;;;;;;;;;;;;;;16.95;88.47;96263.94;5076769;28;19950;-74
2022/06/05 03:10:39;;;;;;;;;;;;;;;16.95;87.90;96252.56;5094086;28;19954;-73
2022/06/05 03:13:05;;;;;;;;;;;;;;;16.96;88.93;96249.63;5094760;28;20320;-73
2022/06/05 03:15:32;;;;;;;;;;;;;;;16.97;87.07;96250.44;5095133;28;19968;-73
2022/06/05 03:17:58;;;;;;;;;;;;;;;16.97;89.57;96253.88;5094359;28;19969;-74
2022/06/05 03:20:24;;;;;;;;;;;;;;;16.99;87.82;96272.19;5094568;28;20414;-74
2022/06/05 03:22:50;;;;;;;;;;;;;;;17.01;89.14;96283.31;5094439;28;20445;-74
2022/06/05 03:25:18;;;;;;;;;;;;;;;17.04;89.22;96311.91;5093269;28;19963;-74
2022/06/05 03:27:43;;;;;;;;;;;;;;;17.09;88.80;96343.69;5094156;28;19958;-73
2022/06/05 03:30:10;;;;;;;;;;;;;;;17.10;91.02;96382.41;5094458;28;19987;-74
2022/06/05 03:32:36;;;;;;;;;;;;;;;17.09;91.25;96403.84;5094251;28;19962;-73
2022/06/05 03:35:16;;;;;;;;;;;;;;;17.10;89.97;96418.72;5058679;28;20301;-74
2022/06/05 03:37:42;;;;;;;;;;;;;;;17.11;90.07;96399.88;5094315;28;19968;-74
2022/06/05 03:40:10;;;;;;;;;;;;;;;17.16;89.43;96368.13;5076259;28;20000;-75
2022/06/05 03:42:36;;;;;;;;;;;;;;;17.21;87.87;96352.22;5094268;28;19965;-74
2022/06/05 03:45:02;;;;;;;;;;;;;;;17.26;87.70;96330.25;5093943;28;20394;-74
2022/06/05 03:47:27;;;;;;;;;;;;;;;17.28;87.22;96312.19;5093991;28;19960;-74
2022/06/05 03:49:53;;;;;;;;;;;;;;;17.31;86.94;96302.94;5093070;28;20022;-74
2022/06/05 03:52:19;;;;;;;;;;;;;;;17.32;87.08;96284.09;5094012;28;20046;-73
2022/06/05 03:54:45;;;;;;;;;;;;;;;17.32;87.89;96268.22;5094056;28;19975;-74
2022/06/05 03:57:11;;;;;;;;;;;;;;;17.31;89.61;96274.59;5093798;28;19975;-73
2022/06/05 03:59:37;;;;;;;;;;;;;;;17.29;89.90;96302.41;5093877;28;19962;-74
2022/06/05 04:02:05;;;;;;;;;;;;;;;17.28;90.79;96316.72;5093939;28;20024;-73
2022/06/05 04:04:31;;;;;;;;;;;;;;;17.28;90.17;96329.97;5093737;28;19951;-74
2022/06/05 04:06:57;;;;;;;;;;;;;;;17.27;90.29;96321.22;5093789;28;19981;-74
2022/06/05 04:09:23;;;;;;;;;;;;;;;17.28;90.75;96320.16;5093532;28;19957;-74
2022/06/05 04:11:49;;;;;;;;;;;;;;;17.27;90.53;96331.81;5093970;28;19955;-74
2022/06/05 04:14:15;;;;;;;;;;;;;;;17.27;90.79;96353.03;5075662;28;20075;-74
2022/06/05 04:16:41;;;;;;;;;;;;;;;17.27;90.88;96363.63;5093660;28;20408;-74
2022/06/05 04:19:07;;;;;;;;;;;;;;;17.29;90.44;96376.63;5093588;28;19978;-74
2022/06/05 04:21:35;;;;;;;;;;;;;;;17.28;91.49;96399.66;5075983;28;19959;-74
2022/06/05 04:24:01;;;;;;;;;;;;;;;17.29;90.81;96400.47;5097707;28;19955;-74
2022/06/05 04:26:28;;;;;;;;;;;;;;;17.30;92.09;96413.44;5097938;28;20373;-74
2022/06/05 04:28:59;;;;;;;;;;;;;;;17.29;91.39;96414.53;5097115;28;19948;-74
2022/06/05 04:31:33;;;;;;;;;;;;;;;17.29;90.84;96409.22;5096905;28;20337;-74
2022/06/05 04:34:00;;;;;;;;;;;;;;;17.31;91.64;96406.31;5096632;28;19953;-73
2022/06/05 04:36:26;;;;;;;;;;;;;;;17.31;92.58;96417.72;5098135;28;19953;-74
2022/06/05 04:38:52;;;;;;;;;;;;;;;17.32;92.31;96429.09;5097570;28;19967;-73
2022/06/05 04:41:18;;;;;;;;;;;;;;;17.31;93.95;96452.16;5097863;28;19961;-73
2022/06/05 04:43:45;;;;;;;;;;;;;;;17.32;94.10;96468.84;5097762;28;19954;-72
2022/06/05 04:46:11;;;;;;;;;;;;;;;17.31;95.48;96477.88;5097572;28;19982;-72
2022/06/05 04:48:37;;;;;;;;;;;;;;;17.28;95.93;96488.97;5097408;28;19949;-73
2022/06/05 04:51:07;;;;;;;;;;;;;;;17.23;96.38;96497.72;5063345;28;19959;-73
2022/06/05 04:53:33;;;;;;;;;;;;;;;17.19;95.91;96484.19;5097203;28;19957;-73
2022/06/05 04:56:04;;;;;;;;;;;;;;;17.17;96.33;96478.34;5079237;28;20475;-73
2022/06/05 04:58:29;;;;;;;;;;;;;;;17.17;96.72;96464.31;5096494;28;19970;-74
2022/06/05 05:00:55;;;;;;;;;;;;;;;17.17;96.91;96467.75;5097142;28;20006;-74
2022/06/05 05:03:21;;;;;;;;;;;;;;;17.17;96.75;96466.94;5097410;28;20006;-74
2022/06/05 05:05:47;;;;;;;;;;;;;;;17.16;97.44;96466.16;5097623;28;20045;-73
2022/06/05 05:08:13;;;;;;;;;;;;;;;17.17;97.17;96473.03;5096896;28;20010;-73
2022/06/05 05:10:39;;;;;;;;;;;;;;;17.19;97.70;96483.38;5096964;28;19961;-73
2022/06/05 05:13:05;;;;;;;;;;;;;;;17.19;98.50;96489.47;5096755;28;20002;-74
2022/06/05 05:15:31;;;;;;;;;;;;;;;17.19;97.89;96480.75;5096772;28;19990;-73
2022/06/05 05:17:57;;;;;;;;;;;;;;;17.21;97.59;96483.94;5084008;28;19976;-73
2022/06/05 05:20:25;;;;;;;;;;;;;;;17.22;97.81;96485.53;5096940;28;19960;-73
2022/06/05 05:22:50;;;;;;;;;;;;;;;17.24;96.96;96478.13;5096925;28;20060;-73
2022/06/05 05:25:16;;;;;;;;;;;;;;;17.24;97.68;96484.22;5096569;28;20473;-73
2022/06/05 05:27:42;;;;;;;;;;;;;;;17.25;97.10;96491.09;5096804;28;20000;-74
2022/06/05 05:30:09;;;;;;;;;;;;;;;17.23;98.40;96501.16;5096139;28;20007;-73
2022/06/05 05:32:36;;;;;;;;;;;;;;;17.12;99.40;96480.97;5096699;28;19968;-73
2022/06/05 05:35:02;;;;;;;;;;;;;;;16.94;100.00;96425.78;5095598;28;19950;-73
2022/06/05 05:37:28;;;;;;;;;;;;;;;16.72;100.00;96352.59;5096482;28;20346;-73
2022/06/05 05:42:38;;;;;;;;;;;;;;;16.48;100.00;96410.44;5095659;28;20441;-73
2022/06/05 05:45:05;;;;;;;;;;;;;;;16.49;100.00;96419.19;5096490;28;19972;-73
2022/06/05 05:47:32;;;;;;;;;;;;;;;16.50;100.00;96412.84;5096135;28;20439;-73
2022/06/05 05:50:27;;;;;;;;;;;;;;;16.51;100.00;96370.22;5091529;28;19955;-74
2022/06/05 05:52:53;;;;;;;;;;;;;;;16.49;100.00;96353.81;5078124;28;20043;-74
2022/06/05 05:55:19;;;;;;;;;;;;;;;16.50;100.00;96352.75;5096101;28;19960;-74
2022/06/05 05:57:46;;;;;;;;;;;;;;;16.49;100.00;96324.69;5096278;28;19972;-73
2022/06/05 06:00:13;;;;;;;;;;;;;;;16.50;99.87;96289.22;5095980;28;20409;-73
2022/06/05 06:02:41;;;;;;;;;;;;;;;16.50;100.00;96283.91;5096084;28;20427;-73
2022/06/05 06:05:08;;;;;;;;;;;;;;;16.50;100.00;96299.00;5095999;28;19954;-74
2022/06/05 06:07:34;;;;;;;;;;;;;;;16.51;100.00;96303.25;5095843;28;19958;-75
2022/06/05 06:10:00;;;;;;;;;;;;;;;16.50;100.00;96326.28;5095765;28;19956;-73
2022/06/05 06:12:26;;;;;;;;;;;;;;;16.49;100.00;96343.22;5077977;28;20336;-73
2022/06/05 06:14:52;;;;;;;;;;;;;;;16.47;100.00;96315.41;5095788;28;19953;-74
2022/06/05 06:17:18;;;;;;;;;;;;;;;16.44;100.00;96308.78;5095931;28;19999;-73
2022/06/05 06:19:44;;;;;;;;;;;;;;;16.42;100.00;96319.63;5095713;28;20447;-73
2022/06/05 06:22:09;;;;;;;;;;;;;;;16.43;100.00;96307.97;5095426;28;19967;-74
2022/06/05 06:24:35;;;;;;;;;;;;;;;16.42;100.00;96284.41;5077604;28;19963;-74
2022/06/05 06:27:01;;;;;;;;;;;;;;;16.42;100.00;96277.28;5095382;28;19993;-74
2022/06/05 06:29:27;;;;;;;;;;;;;;;16.42;100.00;96242.06;5095564;28;20044;-74
2022/06/05 06:31:53;;;;;;;;;;;;;;;16.42;100.00;96242.06;5095146;28;20072;-74
2022/06/05 06:34:19;;;;;;;;;;;;;;;16.43;100.00;96257.69;5095254;28;19961;-76
2022/06/05 06:36:45;;;;;;;;;;;;;;;16.44;100.00;96269.88;5095177;28;19959;-74
2022/06/05 06:39:11;;;;;;;;;;;;;;;16.48;100.00;96274.66;5094053;28;19974;-74
2022/06/05 06:41:37;;;;;;;;;;;;;;;16.51;100.00;96247.69;5095813;28;20003;-74
2022/06/05 06:44:03;;;;;;;;;;;;;;;16.52;100.00;96251.91;5095471;28;20447;-74
2022/06/05 06:46:30;;;;;;;;;;;;;;;16.52;100.00;96278.38;5095153;28;19953;-74
2022/06/05 06:48:55;;;;;;;;;;;;;;;16.51;100.00;96258.25;5094991;28;20445;-74
2022/06/05 06:51:21;;;;;;;;;;;;;;;16.53;100.00;96262.25;5095204;28;19964;-74
2022/06/05 06:53:48;;;;;;;;;;;;;;;16.54;100.00;96285.00;5095103;28;19970;-74
2022/06/05 06:56:15;;;;;;;;;;;;;;;16.57;100.00;96292.44;5095014;28;19963;-74
2022/06/05 06:58:41;;;;;;;;;;;;;;;16.59;100.00;96308.84;5094805;28;19969;-74
2022/06/05 07:01:07;;;;;;;;;;;;;;;16.63;100.00;96317.06;5094916;28;19969;-74
2022/06/05 07:03:34;;;;;;;;;;;;;;;16.67;100.00;96314.69;5076822;28;19966;-74
2022/06/05 07:06:01;;;;;;;;;;;;;;;16.68;100.00;96319.72;5094880;28;19968;-74
2022/06/05 07:08:27;;;;;;;;;;;;;;;16.71;100.00;96329.00;5095043;28;19971;-74
2022/06/05 07:10:53;;;;;;;;;;;;;;;16.73;100.00;96329.53;5094759;28;20361;-74
2022/06/05 07:13:19;;;;;;;;;;;;;;;16.75;100.00;96319.47;5094963;28;19975;-74
2022/06/05 07:15:45;;;;;;;;;;;;;;;16.76;100.00;96292.75;5094676;28;19969;-74
2022/06/05 07:18:11;;;;;;;;;;;;;;;16.77;100.00;96278.44;5094446;28;20348;-74
2022/06/05 07:20:38;;;;;;;;;;;;;;;16.75;100.00;96277.91;5076362;28;19956;-76
2022/06/05 07:23:05;;;;;;;;;;;;;;;16.76;100.00;96274.22;5094690;28;19952;-74
2022/06/05 07:25:31;;;;;;;;;;;;;;;16.80;100.00;96272.66;5094667;28;19980;-74
2022/06/05 07:27:57;;;;;;;;;;;;;;;16.83;100.00;96277.44;5076395;28;19959;-74
2022/06/05 07:30:24;;;;;;;;;;;;;;;16.91;100.00;96275.34;5094146;28;19994;-74
2022/06/05 07:32:50;;;;;;;;;;;;;;;16.98;100.00;96289.13;5094064;28;19962;-74
2022/06/05 07:35:16;;;;;;;;;;;;;;;17.06;100.00;96282.50;5094534;28;19966;-74
2022/06/05 07:37:42;;;;;;;;;;;;;;;17.14;100.00;96290.72;5094115;28;19959;-74
2022/06/05 07:40:12;;;;;;;;;;;;;;;17.21;100.00;96290.47;5038988;28;19966;-75
2022/06/05 07:42:38;;;;;;;;;;;;;;;17.28;100.00;96296.28;5076510;28;19954;-74
2022/06/05 07:45:06;;;;;;;;;;;;;;;17.35;100.00;96302.16;5094175;28;19960;-74
2022/06/05 07:47:32;;;;;;;;;;;;;;;17.41;100.00;96276.44;5093824;28;19979;-74
2022/06/05 07:50:16;;;;;;;;;;;;;;;17.45;100.00;96274.84;5094283;28;19961;-74
2022/06/05 07:55:26;;;;;;;;;;;;;;;17.54;100.00;96283.06;5093968;28;19964;-74
2022/06/05 07:57:52;;;;;;;;;;;;;;;17.54;100.00;96283.84;5093372;28;19960;-77
2022/06/05 08:00:23;;;;;;;;;;;;;;;17.58;100.00;96290.22;5044900;28;19956;-74
2022/06/05 08:02:50;;;;;;;;;;;;;;;17.67;100.00;96303.72;5093629;28;20429;-74
2022/06/05 08:05:16;;;;;;;;;;;;;;;17.75;100.00;96295.25;5093890;28;19963;-75
2022/06/05 08:07:42;;;;;;;;;;;;;;;17.93;100.00;96295.78;5031593;28;19960;-74
2022/06/05 08:10:08;;;;;;;;;;;;;;;18.09;100.00;96288.59;5031640;28;19962;-74
2022/06/05 08:12:35;;;;;;;;;;;;;;;18.31;100.00;96288.25;5030473;28;19959;-74
2022/06/05 08:15:08;;;;;;;;;;;;;;;18.53;100.00;96277.28;5031341;28;20029;-74
2022/06/05 08:17:35;;;;;;;;;;;;;;;18.72;100.00;96280.91;5031648;28;19961;-75
2022/06/05 08:20:03;;;;;;;;;;;;;;;18.95;100.00;96273.38;5030352;28;19976;-74
2022/06/05 08:22:29;;;;;;;;;;;;;;;19.16;96.92;96260.75;5031331;28;19997;-75
2022/06/05 08:24:55;;;;;;;;;;;;;;;19.35;95.35;96271.50;5030460;28;19968;-74
2022/06/05 08:27:23;;;;;;;;;;;;;;;19.45;93.01;96266.09;5031337;28;20350;-74
2022/06/05 08:29:49;;;;;;;;;;;;;;;19.52;92.65;96269.22;5030969;28;20309;-75
2022/06/05 08:32:15;;;;;;;;;;;;;;;19.55;93.01;96284.63;5030276;28;19963;-75
2022/06/05 08:34:42;;;;;;;;;;;;;;;19.79;94.53;96287.38;5031360;28;19966;-75
2022/06/05 08:42:43;;;;;;;;;;;;;;;20.60;90.68;96273.44;5093812;28;19956;-74
2022/06/05 08:45:11;;;;;;;;;;;;;;;20.63;84.78;96260.34;5093255;28;19961;-74
2022/06/05 08:48:03;;;;;;;;;;;;;;;20.63;87.08;96265.69;5093406;28;19976;-74
2022/06/05 08:50:41;;;;;;;;;;;;;;;20.52;86.57;96256.22;5074425;28;19950;-74
2022/06/05 08:53:10;;;;;;;;;;;;;;;20.40;89.17;96264.63;5092496;28;19962;-75
2022/06/05 08:55:40;;;;;;;;;;;;;;;20.23;88.08;96269.63;5093403;28;19967;-75
2022/06/05 08:58:18;;;;;;;;;;;;;;;20.08;88.94;96283.88;5093352;28;19962;-75
2022/06/05 09:00:53;;;;;;;;;;;;;;;19.87;89.00;96278.78;5093121;28;20416;-74
2022/06/05 09:03:24;;;;;;;;;;;;;;;19.71;90.56;96277.31;5093369;28;19973;-74
2022/06/05 09:05:54;;;;;;;;;;;;;;;19.61;93.04;96294.16;5093233;28;19956;-73
2022/06/05 09:08:22;;;;;;;;;;;;;;;19.57;94.76;96306.44;5075085;28;19950;-73
2022/06/05 09:10:51;;;;;;;;;;;;;;;19.56;95.28;96304.81;5095734;28;19961;-73
2022/06/05 09:13:23;;;;;;;;;;;;;;;19.63;97.73;96317.81;5097055;28;19969;-74
2022/06/05 09:15:55;;;;;;;;;;;;;;;19.72;97.36;96316.16;5096851;28;19967;-73
2022/06/05 09:18:22;;;;;;;;;;;;;;;19.78;96.54;96315.06;5096276;28;20344;-74
2022/06/05 09:20:53;;;;;;;;;;;;;;;19.88;96.51;96300.84;5078762;28;19956;-73
2022/06/05 09:23:30;;;;;;;;;;;;;;;19.92;95.85;96309.84;5092972;28;20436;-74
2022/06/05 09:26:11;;;;;;;;;;;;;;;19.93;95.99;96308.78;5097230;28;20007;-74
2022/06/05 09:28:50;;;;;;;;;;;;;;;19.95;96.24;96314.63;5096705;28;20357;-74
2022/06/05 09:31:34;;;;;;;;;;;;;;;19.96;95.90;96315.41;5096947;28;19995;-74
2022/06/05 09:34:04;;;;;;;;;;;;;;;19.97;94.37;96325.78;5084096;28;19967;-74
2022/06/05 09:36:32;;;;;;;;;;;;;;;20.04;95.05;96330.78;5096569;28;19959;-74
2022/06/05 09:39:03;;;;;;;;;;;;;;;20.20;95.20;96342.88;5096846;28;19982;-74
2022/06/05 09:41:28;;;;;;;;;;;;;;;20.53;95.83;96337.72;5096560;28;19969;-74
2022/06/05 09:43:54;;;;;;;;;;;;;;;20.70;93.52;96347.94;5096475;28;20373;-76
2022/06/05 09:46:24;;;;;;;;;;;;;;;20.76;91.58;96357.44;5094926;28;19976;-74
2022/06/05 09:49:08;;;;;;;;;;;;;;;20.78;91.64;96352.63;5096863;28;19966;-75
2022/06/05 09:51:36;;;;;;;;;;;;;;;20.78;92.00;96363.28;5095952;28;19964;-74
2022/06/05 09:54:06;;;;;;;;;;;;;;;20.72;92.10;96359.09;5096308;28;19957;-75
2022/06/05 09:58:24;;;;;;;;;;;;;;;20.64;92.36;96359.72;5095966;28;19969;-75
2022/06/05 09:59:24;;;;;;;;;;;;;;;20.52;91.98;96367.31;5096093;28;19968;-75
2022/06/05 10:01:54;;;;;;;;;;;;;;;20.40;92.99;96371.16;5094728;28;19962;-74
2022/06/05 10:04:21;;;;;;;;;;;;;;;20.29;93.29;96364.34;5095476;28;19958;-75
2022/06/05 10:06:56;;;;;;;;;;;;;;;20.15;94.67;96366.09;5096061;28;19964;-75
2022/06/05 10:09:24;;;;;;;;;;;;;;;20.03;93.75;96369.09;5095839;28;20457;-74
2022/06/05 10:12:07;;;;;;;;;;;;;;;19.93;94.39;96364.69;5096152;28;19987;-75
2022/06/05 10:14:50;;;;;;;;;;;;;;;19.83;95.06;96356.78;5081270;28;20444;-75
2022/06/05 10:17:36;;;;;;;;;;;;;;;19.69;96.96;96348.59;5095610;28;20324;-73
2022/06/05 10:20:28;;;;;;;;;;;;;;;19.56;98.49;96339.41;5096099;28;19987;-73
2022/06/05 10:23:12;;;;;;;;;;;;;;;19.44;99.22;96346.94;5079201;28;19969;-74
2022/06/05 10:25:41;;;;;;;;;;;;;;;19.38;100.00;96332.09;5094634;28;19960;-74
2022/06/05 10:28:09;;;;;;;;;;;;;;;19.39;100.00;96339.00;5094611;28;19956;-73
2022/06/05 10:30:43;;;;;;;;;;;;;;;19.39;100.00;96328.38;5095114;28;20327;-73
2022/06/05 10:33:17;;;;;;;;;;;;;;;19.40;100.00;96333.41;5095260;28;20418;-74
2022/06/05 10:35:50;;;;;;;;;;;;;;;19.41;100.00;96326.22;5094781;28;19960;-73
2022/06/05 10:39:09;;;;;;;;;;;;;;;19.40;100.00;96321.97;5043757;28;19970;-73
2022/06/05 10:41:35;;;;;;;;;;;;;;;19.39;100.00;96299.91;5091618;28;19966;-74
2022/06/05 10:44:10;;;;;;;;;;;;;;;19.38;100.00;96295.66;5095521;28;19957;-74
2022/06/05 10:47:08;;;;;;;;;;;;;;;19.34;100.00;96291.97;5033181;28;19959;-73
2022/06/05 10:49:35;;;;;;;;;;;;;;;19.31;100.00;96286.41;4999925;28;20305;-74
2022/06/05 10:52:21;;;;;;;;;;;;;;;19.29;100.00;96283.25;5032708;28;19959;-74
2022/06/05 10:54:51;;;;;;;;;;;;;;;19.28;100.00;96303.72;5032654;28;19965;-74
2022/06/05 10:57:32;;;;;;;;;;;;;;;19.32;100.00;96311.91;5032721;28;19961;-73
2022/06/05 11:00:21;;;;;;;;;;;;;;;19.29;100.00;96313.28;5022127;28;19969;-74
2022/06/05 11:02:52;;;;;;;;;;;;;;;19.29;100.00;96301.84;5032601;28;19972;-73
2022/06/05 11:05:36;;;;;;;;;;;;;;;19.26;100.00;96300.53;5032700;28;19955;-74
2022/06/05 11:08:15;;;;;;;;;;;;;;;19.22;100.00;96310.13;5032546;28;19954;-73
2022/06/05 11:13:47;;;;;;;;;;;;;;;19.32;99.40;96322.56;5032408;28;20344;-74
2022/06/05 11:16:19;;;;;;;;;;;;;;;19.40;98.53;96327.28;5032312;28;19952;-74
2022/06/05 11:19:08;;;;;;;;;;;;;;;19.60;99.89;96326.34;5082770;28;19963;-74
2022/06/05 11:21:35;;;;;;;;;;;;;;;20.05;97.14;96327.84;5094569;28;19961;-75
2022/06/05 11:24:02;;;;;;;;;;;;;;;20.38;91.35;96313.91;5094646;28;19957;-74
2022/06/05 11:26:41;;;;;;;;;;;;;;;20.60;92.49;96324.06;5094517;28;19963;-75
2022/06/05 11:29:12;;;;;;;;;;;;;;;20.70;85.34;96317.84;5094664;28;19961;-74
2022/06/05 11:31:38;;;;;;;;;;;;;;;20.86;90.13;96314.69;5092705;28;20357;-74
2022/06/05 11:34:19;;;;;;;;;;;;;;;21.05;90.47;96316.56;5094054;28;19963;-75
2022/06/05 11:36:50;;;;;;;;;;;;;;;21.28;87.63;96320.25;5094736;28;20412;-74
2022/06/05 11:39:32;;;;;;;;;;;;;;;21.31;81.17;96308.19;5076152;28;20353;-74
2022/06/05 11:42:00;;;;;;;;;;;;;;;21.25;83.30;96308.28;5094119;28;19950;-74
2022/06/05 11:44:43;;;;;;;;;;;;;;;21.24;83.20;96306.69;5094164;28;19960;-74
2022/06/05 11:47:25;;;;;;;;;;;;;;;21.16;84.81;96303.88;5094085;28;20437;-74
2022/06/05 11:50:10;;;;;;;;;;;;;;;21.07;82.78;96293.88;5094257;28;19959;-74
2022/06/05 11:52:43;;;;;;;;;;;;;;;20.99;82.17;96297.19;5084549;28;20013;-74
2022/06/05 11:55:09;;;;;;;;;;;;;;;20.91;83.08;96297.81;5094075;28;20297;-75
2022/06/05 11:57:46;;;;;;;;;;;;;;;20.82;84.32;96311.00;5093762;28;19998;-74
2022/06/05 12:00:14;;;;;;;;;;;;;;;20.84;82.52;96319.50;5094201;28;19975;-74
2022/06/05 12:02:59;;;;;;;;;;;;;;;20.90;85.94;96330.13;5094164;28;19964;-74
2022/06/05 12:05:45;;;;;;;;;;;;;;;20.85;83.80;96339.78;5093625;28;19950;-74
2022/06/05 12:08:31;;;;;;;;;;;;;;;20.76;83.91;96343.34;5093950;28;19982;-74
2022/06/05 12:11:15;;;;;;;;;;;;;;;20.73;85.56;96333.28;5087823;28;19964;-74
2022/06/05 12:13:45;;;;;;;;;;;;;;;20.72;84.84;96332.44;5093780;28;20004;-74
2022/06/05 12:16:14;;;;;;;;;;;;;;;20.80;85.86;96334.50;5074382;28;19961;-74
2022/06/05 12:18:49;;;;;;;;;;;;;;;20.81;81.66;96329.94;5075518;28;19951;-74
2022/06/05 12:21:21;;;;;;;;;;;;;;;20.83;82.96;96320.59;5093564;28;19964;-74
2022/06/05 12:23:47;;;;;;;;;;;;;;;20.91;79.81;96313.03;5093531;28;19969;-75
2022/06/05 12:26:42;;;;;;;;;;;;;;;21.04;82.61;96315.78;5093722;28;20040;-74
2022/06/05 12:29:16;;;;;;;;;;;;;;;21.12;80.35;96311.66;5058167;28;19950;-74
2022/06/05 12:31:48;;;;;;;;;;;;;;;21.06;79.06;96292.31;5075306;28;19981;-74
2022/06/05 12:34:20;;;;;;;;;;;;;;;21.15;81.66;96287.09;5093739;28;19962;-74
2022/06/05 12:36:50;;;;;;;;;;;;;;;21.28;82.45;96289.03;5083440;28;20330;-74
2022/06/05 12:39:43;;;;;;;;;;;;;;;21.37;81.90;96283.81;5093805;28;19967;-74
2022/06/05 12:42:14;;;;;;;;;;;;;;;21.26;79.24;96282.41;5081542;28;19956;-74
2022/06/05 12:44:41;;;;;;;;;;;;;;;21.17;81.46;96279.59;5097284;28;19955;-74
2022/06/05 12:47:13;;;;;;;;;;;;;;;21.13;80.52;96280.47;5097591;28;20370;-74
2022/06/05 12:49:54;;;;;;;;;;;;;;;21.08;81.29;96279.47;5097244;28;19958;-74
2022/06/05 12:52:26;;;;;;;;;;;;;;;21.04;81.51;96269.66;5097515;28;19954;-74
2022/06/05 12:54:54;;;;;;;;;;;;;;;21.09;83.42;96270.38;5097178;28;19964;-74
2022/06/05 12:57:28;;;;;;;;;;;;;;;21.16;83.90;96266.56;5097400;28;19959;-74
2022/06/05 13:00:01;;;;;;;;;;;;;;;21.21;81.47;96263.81;5097284;28;19979;-74
2022/06/05 13:02:34;;;;;;;;;;;;;;;21.27;83.12;96278.63;5097702;28;19965;-74
2022/06/05 13:05:12;;;;;;;;;;;;;;;21.38;84.18;96273.97;5097405;28;20340;-74
2022/06/05 13:07:51;;;;;;;;;;;;;;;21.45;83.56;96279.75;5097383;28;20361;-74
2022/06/05 13:10:30;;;;;;;;;;;;;;;21.52;81.58;96269.47;5095852;28;19966;-74
2022/06/05 13:13:01;;;;;;;;;;;;;;;21.59;80.56;96258.44;5096935;28;20428;-73
2022/06/05 13:15:33;;;;;;;;;;;;;;;21.62;81.84;96260.50;5096739;28;19963;-74
2022/06/05 13:18:08;;;;;;;;;;;;;;;21.76;81.83;96250.66;5097147;28;20417;-74